Latest Weather Observations for Groote Eylandt Airport

IDD60801

Issued at 11:01 am CST Thursday 1 September 2016 (issued every 30 minutes, with the page automatically refreshed every 10 minutes)

About weather observations | Map of weather stations | Latest weather observations for NT | Other Formats
Station Details ID: 014518 Name: GROOTE EYLANDT AIRPORT Lat: -13.97 Lon: 136.46 Height: 13.7 m
Data from the previous 72 hours. | See also: Recent months at Groote Eylandt Airport
Date/Time
CST
Temp
°C
App
Temp
°C
Dew
Point
°C
Rel
Hum
%
Delta-T
°C
Wind Press
QNH
hPa
Press
MSL
hPa
Rain since
9am
mm
Dir  Spd
km/h
Gust
km/h
Spd
kts
Gust
kts
01/11:00am 30.7 29.8 17.7 45 8.3 ENE 19 30 10 16 1013.3 1013.2 0.0
01/10:30am 29.2 28.2 18.0 51 7.1 NE 20 28 11 15 1013.9 1013.8 0.0
01/10:00am 29.6 28.5 17.8 49 7.5 ENE 20 28 11 15 1014.1 1014.0 0.0
01/09:30am 28.4 28.7 18.8 56 6.2 ENE 15 22 8 12 1014.2 1014.1 0.0
01/09:00am 27.0 27.3 18.8 60 5.3 ESE 15 19 8 10 1014.0 1013.9 -
01/08:30am 25.2 28.0 20.9 77 2.8 E 7 11 4 6 1013.9 1013.8 -
01/08:00am 22.5 25.2 20.2 87 1.5 E 6 7 3 4 1013.6 1013.5 -
01/07:30am 19.3 22.1 18.0 92 0.8 CALM 0 0 0 0 1013.4 1013.3 -
01/07:00am 16.7 17.9 15.9 95 0.5 E 4 9 2 5 1013.2 1013.1 -
01/06:56am 16.7 17.3 15.9 95 0.5 E 7 9 4 5 1013.2 1013.1 -
01/06:30am 16.4 18.2 15.4 94 0.6 CALM 0 0 0 0 1013.0 1012.9 -
01/06:04am 16.5 18.3 15.5 94 0.6 CALM 0 0 0 0 1012.7 1012.6 -
01/06:00am 16.5 18.3 15.5 94 0.6 CALM 0 0 0 0 1012.7 1012.6 -
01/05:36am 16.6 18.5 15.8 95 0.5 CALM 0 0 0 0 1012.4 1012.3 -
01/05:30am 16.7 18.7 15.9 95 0.5 CALM 0 0 0 0 1012.4 1012.3 -
01/05:08am 16.9 19.0 16.3 96 0.4 CALM 0 0 0 0 1012.3 1012.2 -
01/05:00am 16.9 19.0 16.3 96 0.4 CALM 0 0 0 0 1012.3 1012.2 -
01/04:51am 16.6 18.6 16.0 96 0.4 CALM 0 0 0 0 1012.3 1012.2 -
01/04:49am 16.6 18.6 16.0 96 0.4 CALM 0 0 0 0 1012.3 1012.2 -
01/04:30am 16.9 19.0 16.3 96 0.4 CALM 0 0 0 0 1012.2 1012.1 -
01/04:16am 16.9 19.0 16.3 96 0.4 CALM 0 0 0 0 1012.2 1012.1 -
01/04:00am 17.1 18.5 16.5 96 0.4 E 4 7 2 4 1012.2 1012.1 -
01/03:33am 17.2 19.4 16.6 96 0.4 CALM 0 0 0 0 1012.4 1012.3 -
01/03:30am 17.2 19.4 16.4 95 0.5 CALM 0 0 0 0 1012.4 1012.3 -
01/03:26am 17.2 19.4 16.4 95 0.5 CALM 0 0 0 0 1012.5 1012.4 -
01/03:00am 17.6 18.8 16.8 95 0.5 E 6 7 3 4 1012.7 1012.6 0.0
01/02:30am 17.8 18.9 16.7 93 0.7 E 6 6 3 3 1013.0 1012.9 -
01/02:00am 18.2 20.6 17.0 93 0.7 CALM 0 0 0 0 1013.4 1013.3 -
01/01:30am 18.5 21.0 17.3 93 0.7 CALM 0 0 0 0 1013.5 1013.4 -
01/01:00am 19.3 22.2 18.1 93 0.7 CALM 0 0 0 0 1013.9 1013.8 -
01/12:30am 19.8 22.9 18.6 93 0.7 CALM 0 0 0 0 1014.3 1014.3 -
01/12:00am 19.8 22.8 18.5 92 0.8 CALM 0 0 0 0 1014.6 1014.6 -
 
Date/Time
CST
Temp
°C
App
Temp
°C
Dew
Point
°C
Rel
Hum
%
Delta-T
°C
Wind Press
QNH
hPa
Press
MSL
hPa
Rain since
9am
mm
Dir  Spd
km/h
Gust
km/h
Spd
kts
Gust
kts
31/11:30pm 20.1 23.3 18.8 92 0.8 CALM 0 0 0 0 1014.9 1014.9 -
31/11:00pm 20.8 24.2 19.3 91 0.9 CALM 0 0 0 0 1015.0 1015.0 -
31/10:30pm 21.2 24.7 19.5 90 1.1 CALM 0 0 0 0 1015.2 1015.2 -
31/10:00pm 21.6 25.1 19.5 88 1.3 CALM 0 0 0 0 1015.2 1015.2 -
31/09:30pm 22.4 25.7 19.9 86 1.6 E 2 6 1 3 1015.0 1015.0 -
31/09:00pm 23.1 25.7 20.1 83 1.9 E 6 6 3 3 1014.9 1014.9 0.0
31/08:30pm 23.6 26.2 20.1 81 2.3 ESE 6 7 3 4 1014.6 1014.6 -
31/08:00pm 24.1 26.6 20.2 79 2.5 ESE 7 9 4 5 1014.2 1014.1 -
31/07:30pm 24.8 27.0 20.3 76 2.9 ESE 9 15 5 8 1013.9 1013.8 -
31/07:00pm 25.4 27.0 20.0 72 3.5 E 11 19 6 10 1013.5 1013.4 -
31/06:30pm 26.2 27.5 20.1 69 4.0 E 13 19 7 10 1013.1 1013.0 -
31/06:00pm 26.9 27.4 20.0 66 4.5 ENE 17 24 9 13 1012.7 1012.6 -
31/05:30pm 27.8 28.0 20.1 63 5.0 ENE 19 28 10 15 1012.6 1012.5 -
31/05:00pm 28.7 28.9 20.2 60 5.6 E 19 28 10 15 1012.4 1012.3 -
31/04:30pm 29.4 29.9 20.8 60 5.7 ENE 19 24 10 13 1012.2 1012.1 -
31/04:00pm 29.0 29.1 19.9 58 6.0 ENE 19 24 10 13 1012.3 1012.2 -
31/03:30pm 30.0 30.3 20.5 56 6.3 E 19 28 10 15 1012.5 1012.4 -
31/03:00pm 30.0 30.1 20.0 55 6.6 E 19 28 10 15 1012.7 1012.6 -
31/02:30pm 29.5 29.9 20.6 58 5.9 E 19 26 10 14 1013.0 1012.9 -
31/02:00pm 29.9 30.3 19.9 55 6.6 E 17 26 9 14 1013.5 1013.4 -
31/01:30pm 31.5 32.0 20.8 53 7.1 ENE 19 30 10 16 1014.0 1013.9 -
31/01:00pm 29.9 30.7 20.7 57 6.1 E 17 24 9 13 1014.4 1014.4 -
31/12:30pm 30.1 30.2 20.4 56 6.4 ENE 20 32 11 17 1014.8 1014.8 -
31/12:00pm 29.8 29.9 20.4 57 6.2 E 20 32 11 17 1015.4 1015.4 -
31/11:30am 30.0 30.5 20.0 55 6.6 E 17 24 9 13 1015.9 1015.9 -
31/11:00am 29.8 29.1 18.6 51 7.2 E 20 30 11 16 1016.3 1016.3 -
31/10:30am 29.5 28.1 18.0 50 7.3 E 22 33 12 18 1016.6 1016.6 -
31/10:00am 29.1 27.9 18.5 52 6.8 ENE 22 30 12 16 1016.7 1016.7 -
31/09:30am 28.9 28.1 18.4 53 6.7 E 20 32 11 17 1016.7 1016.7 0.0
31/09:00am 26.8 29.0 21.1 71 3.8 E 11 - 6 - - 1016.5 -
31/08:30am 24.9 28.1 22.4 86 1.7 ESE 9 13 5 7 1016.3 1016.3 0.0
31/08:00am 22.7 26.0 21.5 93 0.8 ESE 6 7 3 4 1016.3 1016.3 0.0
31/07:30am 20.4 22.8 19.7 96 0.4 E 6 7 3 4 1016.2 1016.2 0.0
31/07:29am 20.3 22.7 19.6 96 0.4 E 6 7 3 4 1016.2 1016.2 0.0
31/07:00am 18.6 21.5 18.1 97 0.3 CALM 0 0 0 0 1016.0 1016.0 0.0
31/06:32am 18.0 20.6 17.4 96 0.4 CALM 0 0 0 0 1015.7 1015.7 0.0
31/06:30am 18.0 20.6 17.4 96 0.4 CALM 0 0 0 0 1015.7 1015.7 0.0
31/06:00am 18.3 21.0 17.7 96 0.4 CALM 0 0 0 0 1015.2 1015.2 0.0
31/05:55am 18.3 21.0 17.7 96 0.4 CALM 0 0 0 0 1015.1 1015.1 0.0
31/05:30am 18.4 20.4 17.9 97 0.3 E 4 6 2 3 1014.8 1014.8 0.0
31/05:00am 18.7 20.4 18.0 96 0.4 ESE 6 7 3 4 1014.6 1014.6 0.0
31/04:40am 18.7 21.5 17.9 95 0.5 CALM 0 2 0 1 1014.4 1014.4 0.0
31/04:30am 18.8 20.4 17.8 94 0.6 ESE 6 7 3 4 1014.4 1014.4 0.0
31/04:00am 19.5 22.6 18.7 95 0.5 CALM 0 0 0 0 1014.5 1014.5 0.0
31/03:30am 19.9 23.1 18.9 94 0.6 CALM 0 0 0 0 1014.8 1014.8 0.0
31/03:00am 20.2 23.5 19.2 94 0.6 CALM 0 0 0 0 1015.1 1015.1 0.0
31/02:30am 20.5 23.2 19.5 94 0.6 SE 4 6 2 3 1015.1 1015.1 0.0
31/02:00am 20.9 24.6 19.9 94 0.6 CALM 0 0 0 0 1015.2 1015.2 0.0
31/01:30am 21.5 24.7 20.5 94 0.6 SE 4 6 2 3 1015.5 1015.5 0.0
31/01:00am 21.9 25.5 20.5 92 0.9 ESE 2 6 1 3 1015.5 1015.5 0.0
31/12:30am 22.5 25.6 21.1 92 0.9 ESE 6 7 3 4 1015.7 1015.7 0.0
31/12:00am 22.9 26.0 21.4 91 1.0 ESE 7 9 4 5 1015.8 1015.8 0.0
 
Date/Time
CST
Temp
°C
App
Temp
°C
Dew
Point
°C
Rel
Hum
%
Delta-T
°C
Wind Press
QNH
hPa
Press
MSL
hPa
Rain since
9am
mm
Dir  Spd
km/h
Gust
km/h
Spd
kts
Gust
kts
30/11:30pm 23.2 26.0 21.5 90 1.1 E 9 9 5 5 1015.9 1015.9 0.0
30/11:00pm 23.0 27.3 21.1 89 1.2 CALM 0 0 0 0 1016.2 1016.2 0.0
30/10:30pm 23.4 26.4 21.3 88 1.4 E 7 7 4 4 1016.2 1016.2 0.0
30/10:00pm 24.0 26.4 21.5 86 1.7 E 11 15 6 8 1016.2 1016.2 0.0
30/09:30pm 24.3 26.1 21.8 86 1.7 E 15 19 8 10 1016.1 1016.1 0.0
30/09:00pm 24.4 26.5 21.7 85 1.8 E 13 17 7 9 1016.0 1016.0 0.0
30/08:30pm 24.6 26.8 21.9 85 1.8 ENE 13 19 7 10 1016.0 1016.0 0.0
30/08:00pm 24.9 27.1 21.8 83 2.1 E 13 17 7 9 1015.6 1015.6 0.0
30/07:30pm 25.2 26.9 21.7 81 2.3 ENE 15 19 8 10 1015.2 1015.2 0.0
30/07:00pm 25.6 26.9 21.7 79 2.6 E 17 22 9 12 1014.7 1014.7 0.0
30/06:30pm 26.2 27.9 21.6 76 3.1 ENE 15 24 8 13 1014.4 1014.4 0.0
30/06:00pm 26.9 28.6 21.6 72 3.5 E 15 20 8 11 1014.3 1014.3 0.0
30/05:30pm 27.9 29.7 21.9 70 4.0 E 15 19 8 10 1014.1 1014.0 0.0
30/05:00pm 28.2 29.4 21.5 67 4.5 E 17 20 9 11 1014.0 1013.9 0.0
30/04:30pm 28.5 31.3 21.5 66 4.7 ENE 9 13 5 7 1013.7 1013.6 0.0
30/04:00pm 28.2 31.6 22.0 69 4.2 WNW 7 11 4 6 1013.5 1013.4 0.0
30/03:30pm 29.2 31.8 21.2 62 5.3 NNW 9 17 5 9 1013.3 1013.2 0.0
30/03:00pm 28.8 32.0 22.3 68 4.4 W 9 17 5 9 1013.4 1013.3 0.0
30/02:30pm 28.7 31.0 22.0 67 4.5 W 13 19 7 10 1013.6 1013.5 0.0
30/02:00pm 28.2 31.6 22.0 69 4.2 WSW 7 11 4 6 1014.2 1014.1 0.0
30/01:30pm 29.2 31.9 21.4 63 5.2 N 9 15 5 8 1014.8 1014.8 0.0
30/01:00pm 29.2 30.8 21.4 63 5.2 WNW 15 20 8 11 1015.2 1015.2 0.0
30/12:30pm 29.8 32.8 20.9 59 5.9 NE 6 9 3 5 1015.6 1015.6 0.0
30/12:00pm 27.8 30.7 21.8 70 4.0 WSW 9 11 5 6 1016.2 1016.2 0.0
30/11:30am 27.5 30.3 21.5 70 4.0 W 9 15 5 8 1016.9 1016.9 0.0
30/11:00am 28.4 30.0 20.7 63 5.1 E 13 20 7 11 1017.4 1017.4 0.0
30/10:30am 29.0 30.4 21.0 62 5.3 E 15 20 8 11 1017.6 1017.6 0.0
30/10:00am 29.0 29.4 21.0 62 5.3 ENE 20 26 11 14 1017.9 1017.9 0.0
30/09:30am 28.4 29.0 20.2 61 5.4 ENE 17 22 9 12 1017.9 1017.9 0.0
30/09:00am 26.9 30.0 21.0 70 3.9 ENE 6 11 3 6 1017.7 1017.7 0.0
30/08:30am 25.6 29.3 21.5 78 2.7 ESE 4 7 2 4 1017.4 1017.4 0.0
30/08:00am 23.4 27.8 21.3 88 1.4 CALM 0 0 0 0 1017.0 1017.0 0.0
30/07:30am 21.7 25.8 20.7 94 0.6 CALM 0 0 0 0 1016.6 1016.6 0.0
30/07:00am 20.1 23.5 19.4 96 0.4 CALM 0 0 0 0 1016.2 1016.2 0.0
30/06:30am 19.8 23.1 19.1 96 0.4 CALM 0 0 0 0 1015.8 1015.8 0.0
30/06:00am 19.9 22.2 19.4 97 0.3 SSW 6 7 3 4 1015.5 1015.5 0.0
30/05:30am 19.5 22.7 18.8 96 0.4 CALM 0 0 0 0 1014.8 1014.8 0.0
30/05:00am 19.4 22.1 18.6 95 0.5 ESE 2 6 1 3 1014.3 1014.3 0.0
30/04:30am 19.8 23.1 19.0 95 0.5 CALM 0 0 0 0 1013.9 1013.8 0.0
30/04:00am 20.1 23.5 19.3 95 0.5 CALM 0 0 0 0 1013.8 1013.7 0.0
30/03:30am 20.3 23.8 19.5 95 0.5 CALM 0 0 0 0 1014.0 1013.9 0.0
30/03:00am 20.3 23.7 19.3 94 0.6 CALM 0 0 0 0 1014.1 1014.0 0.0
30/02:30am 20.7 24.2 19.5 93 0.8 CALM 0 0 0 0 1014.3 1014.3 0.0
30/02:00am 21.5 25.5 20.5 94 0.6 CALM 0 0 0 0 1014.6 1014.6 0.0
30/01:30am 21.5 25.4 20.3 93 0.8 CALM 0 0 0 0 1014.9 1014.9 0.0
30/01:00am 22.2 26.4 21.0 93 0.8 CALM 0 0 0 0 1014.9 1014.9 0.0
30/12:30am 22.4 26.6 20.9 91 1.0 CALM 0 0 0 0 1015.0 1015.0 0.0
30/12:00am 23.0 27.3 21.1 89 1.2 CALM 0 0 0 0 1015.0 1015.0 0.0
 
Date/Time
CST
Temp
°C
App
Temp
°C
Dew
Point
°C
Rel
Hum
%
Delta-T
°C
Wind Press
QNH
hPa
Press
MSL
hPa
Rain since
9am
mm
Dir  Spd
km/h
Gust
km/h
Spd
kts
Gust
kts
29/11:30pm 23.6 26.1 21.7 89 1.3 ENE 11 13 6 7 1014.7 1014.7 0.0
29/11:00pm 23.7 26.5 21.6 88 1.4 ENE 9 13 5 7 1014.7 1014.7 0.0
29/10:30pm 23.9 26.4 21.8 88 1.4 ENE 11 17 6 9 1014.6 1014.6 0.0
29/10:00pm 24.0 26.1 21.7 87 1.5 ENE 13 22 7 12 1014.5 1014.5 0.0
29/09:30pm 24.1 25.4 21.6 86 1.7 ENE 17 24 9 13 1014.4 1014.4 0.0
29/09:00pm 24.3 26.0 21.6 85 1.8 ENE 15 20 8 11 1014.5 1014.5 0.0
29/08:30pm 24.6 26.2 21.5 83 2.1 ENE 15 20 8 11 1014.1 1014.0 0.0
29/08:00pm 24.8 26.3 21.3 81 2.3 ENE 15 22 8 12 1013.8 1013.7 0.0
29/07:30pm 25.1 26.9 21.8 82 2.2 ENE 15 20 8 11 1013.4 1013.3 0.0
29/07:00pm 25.5 27.2 21.6 79 2.6 E 15 20 8 11 1013.1 1013.0 0.0
29/06:30pm 26.1 27.7 21.5 76 3.1 E 15 20 8 11 1012.9 1012.8 0.0
29/06:00pm 26.8 28.2 21.8 74 3.3 ENE 17 22 9 12 1012.7 1012.6 0.0
29/05:30pm 27.2 28.9 21.7 72 3.7 ENE 15 20 8 11 1012.7 1012.6 0.0
29/05:00pm 28.1 30.3 21.9 69 4.2 ENE 13 20 7 11 1012.6 1012.5 0.0
29/04:30pm 27.4 27.8 21.0 68 4.2 ENE 20 32 11 17 1012.4 1012.3 0.0
29/04:00pm 28.7 31.1 22.2 68 4.4 E 13 19 7 10 1012.1 1012.0 0.0
29/03:30pm 27.9 30.4 22.4 72 3.7 E 13 17 7 9 1012.2 1012.1 0.0
29/03:00pm 28.4 32.3 22.9 72 3.7 SE 7 13 4 7 1012.4 1012.3 0.0
29/02:30pm 27.5 31.1 22.4 73 3.4 WSW 7 13 4 7 1013.0 1012.9 0.0
29/02:00pm 27.6 31.3 22.5 74 3.5 W 7 11 4 6 1013.2 1013.1 0.0
29/01:30pm 27.4 30.1 22.1 73 3.6 WSW 11 15 6 8 1013.7 1013.6 0.0
29/01:00pm 27.2 29.6 22.2 74 3.4 W 13 17 7 9 1014.2 1014.1 0.0
29/12:30pm 26.6 29.0 22.2 77 3.0 WSW 13 19 7 10 1014.5 1014.5 0.0
29/12:00pm 26.3 29.5 22.4 79 2.6 WSW 9 13 5 7 1014.9 1014.9 0.0
29/11:30am 26.3 28.1 21.9 77 2.9 W 15 20 8 11 1015.3 1015.3 0.0

Other Formats:

Comma delimited format used in spreadsheet applications
http://www.bom.gov.au/fwo/IDD60801/IDD60801.94153.axf

JavaScript Object Notation format (JSON) in row-major order
http://www.bom.gov.au/fwo/IDD60801/IDD60801.94153.json